createdAt,value
2023-09-02T00:00:17.642Z,18.13
2023-09-02T00:02:44.295Z,18.15
2023-09-02T00:05:11.082Z,18.16
2023-09-02T00:07:38.651Z,18.13
2023-09-02T00:10:06.454Z,18.11
2023-09-02T00:12:33.469Z,18.12
2023-09-02T00:15:00.124Z,18.14
2023-09-02T00:17:26.868Z,18.15
2023-09-02T00:19:53.657Z,18.16
2023-09-02T00:22:20.339Z,18.24
2023-09-02T00:24:46.996Z,18.19
2023-09-02T00:27:13.570Z,18.04
2023-09-02T00:29:40.227Z,17.98
2023-09-02T00:32:06.990Z,17.99
2023-09-02T00:34:34.302Z,18.00
2023-09-02T00:37:00.997Z,17.90
2023-09-02T00:39:27.856Z,17.81
2023-09-02T00:41:56.881Z,17.80
2023-09-02T00:44:23.607Z,17.82
2023-09-02T00:46:50.478Z,17.79
2023-09-02T00:49:17.078Z,17.76
2023-09-02T00:51:43.793Z,17.80
2023-09-02T00:54:10.424Z,17.85
2023-09-02T00:56:40.636Z,17.91
2023-09-02T00:59:07.984Z,17.98
2023-09-02T01:01:36.426Z,18.03
2023-09-02T01:04:05.011Z,18.10
2023-09-02T01:06:32.811Z,18.04
2023-09-02T01:09:01.077Z,17.98
2023-09-02T01:11:28.381Z,17.97
2023-09-02T01:13:55.071Z,17.99
2023-09-02T01:16:21.838Z,18.02
2023-09-02T01:18:48.617Z,18.04
2023-09-02T01:21:37.119Z,18.07
2023-09-02T01:24:38.778Z,18.05
2023-09-02T01:27:26.288Z,18.04
2023-09-02T01:30:15.872Z,18.11
2023-09-02T01:32:44.660Z,18.16
2023-09-02T01:35:17.443Z,18.22
2023-09-02T01:37:47.297Z,18.24
2023-09-02T01:40:23.153Z,18.27
2023-09-02T01:42:51.940Z,18.31
2023-09-02T01:45:20.561Z,18.34
2023-09-02T01:47:48.526Z,18.33
2023-09-02T01:50:22.453Z,18.31
2023-09-02T01:52:49.828Z,18.29
2023-09-02T01:55:17.264Z,18.31
2023-09-02T01:57:44.661Z,18.33
2023-09-02T02:00:12.332Z,18.36
2023-09-02T02:02:39.790Z,18.39
2023-09-02T02:05:08.039Z,18.42
2023-09-02T02:07:37.382Z,18.42
2023-09-02T02:10:11.878Z,18.44
2023-09-02T02:12:42.593Z,18.48
2023-09-02T02:15:12.788Z,18.53
2023-09-02T02:17:40.710Z,18.55
2023-09-02T02:20:10.547Z,18.57
2023-09-02T02:22:37.315Z,18.61
2023-09-02T02:25:04.995Z,18.61
2023-09-02T02:27:31.682Z,18.62
2023-09-02T02:30:00.135Z,18.60
2023-09-02T02:32:26.899Z,18.56
2023-09-02T02:34:55.224Z,18.47
2023-09-02T02:37:21.985Z,18.39
2023-09-02T02:39:48.702Z,18.35
2023-09-02T02:42:16.385Z,18.37
2023-09-02T02:44:43.113Z,18.40
2023-09-02T02:47:09.780Z,18.42
2023-09-02T02:49:36.406Z,18.31
2023-09-02T02:52:03.452Z,18.14
2023-09-02T02:54:30.376Z,18.09
2023-09-02T02:56:59.213Z,18.09
2023-09-02T02:59:25.846Z,18.09
2023-09-02T03:01:52.966Z,18.07
2023-09-02T03:04:19.626Z,18.06
2023-09-02T03:06:46.634Z,18.05
2023-09-02T03:09:13.332Z,18.03
2023-09-02T03:11:40.007Z,18.00
2023-09-02T03:14:06.713Z,17.95
2023-09-02T03:16:34.562Z,17.86
2023-09-02T03:19:01.168Z,17.80
2023-09-02T03:21:35.396Z,17.77
2023-09-02T03:24:02.844Z,17.71
2023-09-02T03:26:29.738Z,17.54
2023-09-02T03:28:56.527Z,17.28
2023-09-02T03:31:24.094Z,17.10
2023-09-02T03:33:50.745Z,16.94
2023-09-02T03:36:18.676Z,16.86
2023-09-02T03:38:46.140Z,16.84
2023-09-02T03:41:14.138Z,16.84
2023-09-02T03:43:40.790Z,16.85
2023-09-02T03:46:07.548Z,16.85
2023-09-02T03:48:34.834Z,16.87
2023-09-02T03:51:06.938Z,16.85
2023-09-02T03:53:36.200Z,16.83
2023-09-02T03:56:03.185Z,16.83
2023-09-02T03:58:31.733Z,16.79
2023-09-02T04:00:58.974Z,16.76
2023-09-02T04:03:28.250Z,16.76
2023-09-02T04:05:55.251Z,16.77
2023-09-02T04:08:24.514Z,16.76
2023-09-02T04:10:53.340Z,16.70
2023-09-02T04:13:29.066Z,16.63
2023-09-02T04:16:04.505Z,16.59
2023-09-02T04:18:33.920Z,16.59
2023-09-02T04:21:01.872Z,16.57
2023-09-02T04:23:28.966Z,16.51
2023-09-02T04:25:58.757Z,16.47
2023-09-02T04:28:25.611Z,16.52
2023-09-02T04:30:57.556Z,16.66
2023-09-02T04:33:26.063Z,16.80
2023-09-02T04:35:54.490Z,16.96
2023-09-02T04:38:21.597Z,17.13
2023-09-02T04:40:51.089Z,17.29
2023-09-02T04:43:18.668Z,17.40
2023-09-02T04:45:47.602Z,17.54
2023-09-02T04:48:15.640Z,17.67
2023-09-02T04:50:43.115Z,17.82
2023-09-02T04:53:11.040Z,17.94
2023-09-02T04:55:40.907Z,18.05
2023-09-02T04:58:10.035Z,18.08
2023-09-02T05:00:39.722Z,18.33
2023-09-02T05:03:07.192Z,18.58
2023-09-02T05:05:35.276Z,18.82
2023-09-02T05:08:02.197Z,19.02
2023-09-02T05:10:29.257Z,19.19
2023-09-02T05:12:56.202Z,19.29
2023-09-02T05:15:22.976Z,19.41
2023-09-02T05:17:53.632Z,19.56
2023-09-02T05:20:20.700Z,19.69
2023-09-02T05:22:47.421Z,19.00
2023-09-02T05:25:14.460Z,18.26
2023-09-02T05:27:42.638Z,18.33
2023-09-02T05:30:09.974Z,18.63
2023-09-02T05:32:36.649Z,18.88
2023-09-02T05:35:03.551Z,19.02
2023-09-02T05:37:30.247Z,19.11
2023-09-02T05:39:57.354Z,19.32
2023-09-02T05:42:23.990Z,19.60
2023-09-02T05:44:50.607Z,19.85
2023-09-02T05:47:17.264Z,20.10
2023-09-02T05:49:44.017Z,20.30
2023-09-02T05:52:10.683Z,20.42
2023-09-02T05:54:37.302Z,20.54
2023-09-02T05:57:04.275Z,19.96
2023-09-02T05:59:30.960Z,19.46
2023-09-02T06:01:59.772Z,19.76
2023-09-02T06:04:26.532Z,20.18
2023-09-02T06:06:53.205Z,20.47
2023-09-02T06:09:19.835Z,20.80
2023-09-02T06:11:46.530Z,21.24
2023-09-02T06:14:13.152Z,21.70
2023-09-02T06:16:39.770Z,21.65
2023-09-02T06:19:06.457Z,21.26
2023-09-02T06:21:33.127Z,20.93
2023-09-02T06:23:59.718Z,20.93
2023-09-02T06:26:26.990Z,21.56
2023-09-02T06:28:53.717Z,22.68
2023-09-02T06:31:20.496Z,24.11
2023-09-02T06:33:47.481Z,25.60
2023-09-02T06:36:17.747Z,27.04
2023-09-02T06:38:45.053Z,28.36
2023-09-02T06:41:16.692Z,29.61
2023-09-02T06:43:45.179Z,30.62
2023-09-02T06:46:15.161Z,31.65
2023-09-02T06:48:41.960Z,32.68
2023-09-02T06:51:08.854Z,33.69
2023-09-02T06:53:35.595Z,34.54
2023-09-02T06:56:03.128Z,35.23
2023-09-02T06:58:29.927Z,35.88
2023-09-02T07:00:56.686Z,36.25
2023-09-02T07:03:23.597Z,36.55
2023-09-02T07:05:50.506Z,36.83
2023-09-02T07:08:17.616Z,37.18
2023-09-02T07:10:44.378Z,37.27
2023-09-02T07:13:11.016Z,37.37
2023-09-02T07:15:38.035Z,37.84
2023-09-02T07:18:06.004Z,38.39
2023-09-02T07:20:37.829Z,38.95
2023-09-02T07:23:04.663Z,39.70
2023-09-02T07:25:31.326Z,40.21
2023-09-02T07:27:58.345Z,40.36
2023-09-02T07:30:25.308Z,40.67
2023-09-02T07:32:52.011Z,41.19
2023-09-02T07:35:18.794Z,41.52
2023-09-02T07:37:45.469Z,41.85
2023-09-02T07:40:12.580Z,42.02
2023-09-02T07:42:40.049Z,42.28
2023-09-02T07:45:07.363Z,42.55
2023-09-02T07:47:34.014Z,42.88
2023-09-02T07:50:00.690Z,42.86
2023-09-02T07:52:29.834Z,42.67
2023-09-02T07:54:56.415Z,42.38
2023-09-02T07:57:23.084Z,42.38
2023-09-02T07:59:49.821Z,42.47
2023-09-02T08:02:16.501Z,42.65
2023-09-02T08:04:43.196Z,42.61
2023-09-02T08:07:09.880Z,42.78
2023-09-02T08:09:36.528Z,43.24
2023-09-02T08:12:03.292Z,43.80
2023-09-02T08:14:30.126Z,44.53
2023-09-02T08:16:57.006Z,45.00
2023-09-02T08:19:23.749Z,45.16
2023-09-02T08:21:50.455Z,44.88
2023-09-02T08:24:17.254Z,44.92
2023-09-02T08:26:43.995Z,45.26
2023-09-02T08:29:10.794Z,45.50
2023-09-02T08:31:37.531Z,45.80
2023-09-02T08:34:04.183Z,46.02
2023-09-02T08:36:31.315Z,45.80
2023-09-02T08:38:58.071Z,45.28
2023-09-02T08:41:31.458Z,44.93
2023-09-02T08:44:02.542Z,44.39
2023-09-02T08:46:32.232Z,43.84
2023-09-02T08:48:59.758Z,43.32
2023-09-02T08:51:28.386Z,42.98
2023-09-02T08:53:57.125Z,43.11
2023-09-02T08:56:24.498Z,43.78
2023-09-02T08:58:54.922Z,44.25
2023-09-02T09:01:23.202Z,44.73
2023-09-02T09:03:53.902Z,44.82
2023-09-02T09:06:23.081Z,44.47
2023-09-02T09:08:52.176Z,44.05
2023-09-02T09:11:19.243Z,43.68
2023-09-02T09:13:47.581Z,43.69
2023-09-02T09:16:24.728Z,44.13
2023-09-02T09:18:51.678Z,44.90
2023-09-02T09:21:18.785Z,45.18
2023-09-02T09:23:45.523Z,44.09
2023-09-02T09:26:13.371Z,42.87
2023-09-02T09:28:57.578Z,42.26
2023-09-02T09:31:25.396Z,41.11
2023-09-02T09:33:59.808Z,40.57
2023-09-02T09:36:28.672Z,39.82
2023-09-02T09:39:00.953Z,38.52
2023-09-02T09:41:29.047Z,36.91
2023-09-02T09:44:16.290Z,35.31
2023-09-02T09:46:53.669Z,33.63
2023-09-02T09:49:27.483Z,32.32
2023-09-02T09:52:03.274Z,32.43
2023-09-02T09:54:42.537Z,33.97
2023-09-02T09:57:10.220Z,35.69
2023-09-02T09:59:37.835Z,36.75
2023-09-02T10:02:05.816Z,37.58
2023-09-02T10:04:33.508Z,37.80
2023-09-02T10:07:04.956Z,37.66
2023-09-02T10:09:46.466Z,38.06
2023-09-02T10:12:14.750Z,38.87
2023-09-02T10:14:46.382Z,39.98
2023-09-02T10:17:14.238Z,40.95
2023-09-02T10:19:41.898Z,41.50
2023-09-02T10:22:09.045Z,42.16
2023-09-02T10:24:39.455Z,41.79
2023-09-02T10:27:12.768Z,41.17
2023-09-02T10:29:44.420Z,41.15
2023-09-02T10:32:15.010Z,41.36
2023-09-02T10:34:57.982Z,41.62
2023-09-02T10:37:29.298Z,41.75
2023-09-02T10:40:05.828Z,41.42
2023-09-02T10:42:32.795Z,40.55
2023-09-02T10:45:00.928Z,39.52
2023-09-02T10:47:27.699Z,38.62
2023-09-02T10:49:55.554Z,38.17
2023-09-02T10:52:22.432Z,37.41
2023-09-02T10:55:05.401Z,36.55
2023-09-02T10:57:33.570Z,36.88
2023-09-02T11:00:13.254Z,37.48
2023-09-02T11:02:41.689Z,37.95
2023-09-02T11:05:08.972Z,38.58
2023-09-02T11:07:36.662Z,39.18
2023-09-02T11:10:04.198Z,39.78
2023-09-02T11:12:30.967Z,40.03
2023-09-02T11:15:10.047Z,39.87
2023-09-02T11:17:38.062Z,39.61
2023-09-02T11:20:09.032Z,39.47
2023-09-02T11:22:53.226Z,39.57
2023-09-02T11:25:42.739Z,39.65
2023-09-02T11:28:18.259Z,39.82
2023-09-02T11:31:11.424Z,40.17
2023-09-02T11:33:39.740Z,40.31
2023-09-02T11:36:10.312Z,39.98
2023-09-02T11:38:37.003Z,38.60
2023-09-02T11:41:04.225Z,36.90
2023-09-02T11:43:33.515Z,35.54
2023-09-02T11:46:01.757Z,35.21
2023-09-02T11:48:29.427Z,35.62
2023-09-02T11:50:59.607Z,35.88
2023-09-02T11:53:31.059Z,36.27
2023-09-02T11:55:58.229Z,36.02
2023-09-02T11:58:26.159Z,35.06
2023-09-02T12:00:52.969Z,33.92
2023-09-02T12:03:30.719Z,32.79
2023-09-02T12:06:00.291Z,31.84
2023-09-02T12:08:28.130Z,31.24
2023-09-02T12:10:55.128Z,31.38
2023-09-02T12:13:22.566Z,32.31
2023-09-02T12:15:51.102Z,33.41
2023-09-02T12:18:19.809Z,34.40
2023-09-02T12:20:46.985Z,35.15
2023-09-02T12:23:14.351Z,35.62
2023-09-02T12:25:42.789Z,35.97
2023-09-02T12:28:13.716Z,36.24
2023-09-02T12:30:41.676Z,36.39
2023-09-02T12:33:08.468Z,36.19
2023-09-02T12:35:35.517Z,36.20
2023-09-02T12:38:04.028Z,36.24
2023-09-02T12:40:30.764Z,35.97
2023-09-02T12:42:57.833Z,35.91
2023-09-02T12:45:31.912Z,36.00
2023-09-02T12:48:00.900Z,36.03
2023-09-02T12:50:28.533Z,36.19
2023-09-02T12:53:02.775Z,36.39
2023-09-02T12:55:30.886Z,36.17
2023-09-02T12:57:58.207Z,35.29
2023-09-02T13:00:25.461Z,34.30
2023-09-02T13:02:55.762Z,33.86
2023-09-02T13:05:22.858Z,33.39
2023-09-02T13:07:49.930Z,33.21
2023-09-02T13:10:17.234Z,33.05
2023-09-02T13:12:44.235Z,32.95
2023-09-02T13:15:11.423Z,32.99
2023-09-02T13:17:38.276Z,33.06
2023-09-02T13:20:06.008Z,33.12
2023-09-02T13:22:38.028Z,33.25
2023-09-02T13:25:05.787Z,33.48
2023-09-02T13:27:33.943Z,33.56
2023-09-02T13:30:01.185Z,33.39
2023-09-02T13:32:28.397Z,33.25
2023-09-02T13:35:03.474Z,33.13
2023-09-02T13:37:30.976Z,33.00
2023-09-02T13:40:19.256Z,32.74
2023-09-02T13:42:47.577Z,32.40
2023-09-02T13:45:31.761Z,31.88
2023-09-02T13:48:00.188Z,31.10
2023-09-02T13:50:27.573Z,30.61
2023-09-02T13:52:58.161Z,30.46
2023-09-02T13:55:31.964Z,30.40
2023-09-02T13:58:00.490Z,30.13
2023-09-02T14:00:31.806Z,29.97
2023-09-02T14:03:02.487Z,30.07
2023-09-02T14:05:32.222Z,30.15
2023-09-02T14:08:06.263Z,30.13
2023-09-02T14:10:36.601Z,30.09
2023-09-02T14:13:12.078Z,30.05
2023-09-02T14:15:40.302Z,29.99
2023-09-02T14:18:10.197Z,29.98
2023-09-02T14:20:39.899Z,29.91
2023-09-02T14:23:09.804Z,29.75
2023-09-02T14:25:37.627Z,29.62
2023-09-02T14:28:06.633Z,29.54
2023-09-02T14:30:36.023Z,29.29
2023-09-02T14:33:08.154Z,28.92
2023-09-02T14:35:38.080Z,28.52
2023-09-02T14:38:08.084Z,28.17
2023-09-02T14:40:37.183Z,27.88
2023-09-02T14:43:07.226Z,27.75
2023-09-02T14:45:37.064Z,27.76
2023-09-02T14:48:06.404Z,27.82
2023-09-02T14:50:36.046Z,27.89
2023-09-02T14:53:06.072Z,27.84
2023-09-02T14:55:34.586Z,27.73
2023-09-02T15:07:36.081Z,26.94
2023-09-02T15:10:05.414Z,26.73
2023-09-02T15:12:33.500Z,26.52
2023-09-02T15:15:01.712Z,26.35
2023-09-02T15:17:32.181Z,26.14
2023-09-02T15:20:00.339Z,25.92
2023-09-02T15:22:30.125Z,25.74
2023-09-02T15:24:56.818Z,25.54
2023-09-02T15:27:24.736Z,25.38
2023-09-02T15:29:51.746Z,25.25
2023-09-02T15:32:18.526Z,25.14
2023-09-02T15:34:49.211Z,25.04
2023-09-02T15:37:25.939Z,24.94
2023-09-02T15:39:55.231Z,24.84
2023-09-02T15:42:23.192Z,24.73
2023-09-02T15:44:49.913Z,24.63
2023-09-02T15:47:16.658Z,24.53
2023-09-02T15:49:43.282Z,24.43
2023-09-02T15:52:09.978Z,24.35
2023-09-02T15:54:38.768Z,24.27
2023-09-02T15:57:07.276Z,24.20
2023-09-02T15:59:34.174Z,24.13
2023-09-02T16:02:00.897Z,24.08
2023-09-02T16:04:27.899Z,24.02
2023-09-02T16:06:54.541Z,23.95
2023-09-02T16:09:21.205Z,23.88
2023-09-02T16:11:50.080Z,23.82
2023-09-02T16:14:19.495Z,23.74
2023-09-02T16:16:46.150Z,23.67
2023-09-02T16:19:12.838Z,23.60
2023-09-02T16:21:39.568Z,23.53
2023-09-02T16:24:06.562Z,23.46
2023-09-02T16:26:33.155Z,23.38
2023-09-02T16:29:01.577Z,23.30
2023-09-02T16:31:28.582Z,23.18
2023-09-02T16:33:55.215Z,23.07
2023-09-02T16:36:21.831Z,22.96
2023-09-02T16:38:50.190Z,22.85
2023-09-02T16:41:17.081Z,22.75
2023-09-02T16:43:44.352Z,22.63
2023-09-02T16:46:13.149Z,22.47
2023-09-02T16:48:40.522Z,22.29
2023-09-02T16:51:07.622Z,22.11
2023-09-02T16:53:37.600Z,21.92
2023-09-02T16:56:05.650Z,21.73
2023-09-02T16:58:35.268Z,21.54
2023-09-02T17:01:06.891Z,21.34
2023-09-02T17:03:36.277Z,21.16
2023-09-02T17:06:07.960Z,20.98
2023-09-02T17:08:35.688Z,20.79
2023-09-02T17:11:02.389Z,20.61
2023-09-02T17:13:29.087Z,20.43
2023-09-02T17:15:55.759Z,20.26
2023-09-02T17:18:22.681Z,20.09
2023-09-02T17:20:50.877Z,19.91
2023-09-02T17:23:22.340Z,19.72
2023-09-02T17:25:51.921Z,19.53
2023-09-02T17:28:24.441Z,19.33
2023-09-02T17:31:07.290Z,19.17
2023-09-02T17:33:35.470Z,19.00
2023-09-02T17:36:02.151Z,18.84
2023-09-02T17:38:28.940Z,18.70
2023-09-02T17:40:56.242Z,18.56
2023-09-02T17:43:22.893Z,18.42
2023-09-02T17:45:49.539Z,18.26
2023-09-02T17:48:16.423Z,18.28
2023-09-02T17:50:43.093Z,18.95
2023-09-02T17:53:09.712Z,19.62
2023-09-02T17:55:36.341Z,19.95
2023-09-02T17:58:06.534Z,19.57
2023-09-02T18:00:33.555Z,18.99
2023-09-02T18:03:03.618Z,18.53
2023-09-02T18:05:30.603Z,18.21
2023-09-02T18:07:57.385Z,18.14
2023-09-02T18:10:24.040Z,18.74
2023-09-02T18:12:51.691Z,19.36
2023-09-02T18:15:18.684Z,19.79
2023-09-02T18:17:45.453Z,19.94
2023-09-02T18:20:15.293Z,19.46
2023-09-02T18:22:41.974Z,18.85
2023-09-02T18:25:08.674Z,18.38
2023-09-02T18:27:35.410Z,18.20
2023-09-02T18:30:02.206Z,18.72
2023-09-02T18:32:30.435Z,19.29
2023-09-02T18:35:00.701Z,19.66
2023-09-02T18:37:27.462Z,19.90
2023-09-02T18:39:58.924Z,19.93
2023-09-02T18:42:25.687Z,19.35
2023-09-02T18:44:52.464Z,18.63
2023-09-02T18:47:19.151Z,18.25
2023-09-02T18:49:46.033Z,18.63
2023-09-02T18:52:12.898Z,19.10
2023-09-02T18:54:40.431Z,19.38
2023-09-02T18:57:08.730Z,19.57
2023-09-02T18:59:36.518Z,19.71
2023-09-02T19:02:03.273Z,19.78
2023-09-02T19:04:30.058Z,19.86
2023-09-02T19:06:56.769Z,19.82
2023-09-02T19:09:23.401Z,19.17
2023-09-02T19:11:50.152Z,18.41
2023-09-02T19:14:16.947Z,18.00
2023-09-02T19:16:43.730Z,18.33
2023-09-02T19:19:10.606Z,18.75
2023-09-02T19:21:37.306Z,19.07
2023-09-02T19:24:05.777Z,19.25
2023-09-02T19:26:32.657Z,19.36
2023-09-02T19:28:59.338Z,19.43
2023-09-02T19:31:26.013Z,19.49
2023-09-02T19:33:52.835Z,19.39
2023-09-02T19:36:19.464Z,18.70
2023-09-02T19:38:46.181Z,17.94
2023-09-02T19:41:12.822Z,17.54
2023-09-02T19:43:40.193Z,17.89
2023-09-02T19:46:07.664Z,18.30
2023-09-02T19:48:34.501Z,18.57
2023-09-02T19:51:01.186Z,18.76
2023-09-02T19:53:28.365Z,18.87
2023-09-02T19:55:56.923Z,18.96
2023-09-02T19:58:23.787Z,19.03
2023-09-02T20:00:50.485Z,19.12
2023-09-02T20:03:18.907Z,19.18
2023-09-02T20:05:47.296Z,19.21
2023-09-02T20:08:14.295Z,19.23
2023-09-02T20:10:41.879Z,19.27
2023-09-02T20:13:08.571Z,19.29
2023-09-02T20:15:36.223Z,19.28
2023-09-02T20:18:04.109Z,19.23
2023-09-02T20:20:32.672Z,19.21
2023-09-02T20:23:00.312Z,19.21
2023-09-02T20:25:31.916Z,19.08
2023-09-02T20:27:58.791Z,18.32
2023-09-02T20:30:25.575Z,17.50
2023-09-02T20:32:52.351Z,17.02
2023-09-02T20:35:19.065Z,17.34
2023-09-02T20:37:45.872Z,17.73
2023-09-02T20:40:12.941Z,17.97
2023-09-02T20:42:39.603Z,18.12
2023-09-02T20:45:06.500Z,18.22
2023-09-02T20:47:33.405Z,18.29
2023-09-02T20:50:01.581Z,18.32
2023-09-02T20:52:28.602Z,18.35
2023-09-02T20:54:55.649Z,18.37
2023-09-02T20:57:22.911Z,18.37
2023-09-02T20:59:51.892Z,18.36
2023-09-02T21:02:19.119Z,18.32
2023-09-02T21:04:48.185Z,18.31
2023-09-02T21:07:15.102Z,18.31
2023-09-02T21:09:41.811Z,18.30
2023-09-02T21:12:10.788Z,18.30
2023-09-02T21:14:37.661Z,18.31
2023-09-02T21:17:04.656Z,18.29
2023-09-02T21:19:35.283Z,18.25
2023-09-02T21:22:02.319Z,18.20
2023-09-02T21:24:28.963Z,18.18
2023-09-02T21:26:58.280Z,18.20
2023-09-02T21:29:25.395Z,18.23
2023-09-02T21:31:52.227Z,18.13
2023-09-02T21:34:18.896Z,18.04
2023-09-02T21:36:46.178Z,18.00
2023-09-02T21:39:12.950Z,17.97
2023-09-02T21:41:39.863Z,17.94
2023-09-02T21:44:06.752Z,17.91
2023-09-02T21:46:34.362Z,17.89
2023-09-02T21:49:01.229Z,17.87
2023-09-02T21:51:28.034Z,17.84
2023-09-02T21:53:56.855Z,17.82
2023-09-02T21:56:23.672Z,17.80
2023-09-02T21:58:50.800Z,17.71
2023-09-02T22:01:19.384Z,17.67
2023-09-02T22:03:46.708Z,17.63
2023-09-02T22:06:15.569Z,17.60
2023-09-02T22:08:44.701Z,17.56
2023-09-02T22:11:12.756Z,17.54
2023-09-02T22:13:39.749Z,17.55
2023-09-02T22:16:06.982Z,17.55
2023-09-02T22:18:33.841Z,17.58
2023-09-02T22:21:01.230Z,17.59
2023-09-02T22:23:33.332Z,17.42
2023-09-02T22:26:04.059Z,17.33
2023-09-02T22:28:37.643Z,17.27
2023-09-02T22:31:05.703Z,17.12
2023-09-02T22:33:35.376Z,17.06
2023-09-02T22:36:03.219Z,17.06
2023-09-02T22:38:52.916Z,17.07
2023-09-02T22:41:21.476Z,17.07
2023-09-02T22:43:48.146Z,17.11
2023-09-02T22:46:17.478Z,17.14
2023-09-02T22:48:44.474Z,17.16
2023-09-02T22:51:11.247Z,17.18
2023-09-02T22:53:40.134Z,17.20
2023-09-02T22:56:15.729Z,17.19
2023-09-02T22:58:42.589Z,17.15
2023-09-02T23:01:12.150Z,17.17
2023-09-02T23:03:39.637Z,17.17
2023-09-02T23:06:10.389Z,17.16
2023-09-02T23:08:39.418Z,17.16
2023-09-02T23:11:06.456Z,17.15
2023-09-02T23:13:33.153Z,17.13
2023-09-02T23:16:07.297Z,17.08
2023-09-02T23:18:34.945Z,17.04
2023-09-02T23:21:18.702Z,17.01
2023-09-02T23:23:48.232Z,17.01
2023-09-02T23:26:18.494Z,17.03
2023-09-02T23:28:45.570Z,17.04
2023-09-02T23:31:12.273Z,17.07
2023-09-02T23:33:39.352Z,17.09
2023-09-02T23:36:06.550Z,17.09
2023-09-02T23:38:33.831Z,17.09
2023-09-02T23:41:00.737Z,17.09
2023-09-02T23:43:27.745Z,17.11
2023-09-02T23:45:54.490Z,17.10
2023-09-02T23:48:22.384Z,17.04
2023-09-02T23:50:51.169Z,16.97
2023-09-02T23:53:18.450Z,16.90
2023-09-02T23:55:47.199Z,16.87
2023-09-02T23:58:13.932Z,16.86
